sensor_id;sensor_type;location;lat;lon;timestamp;pressure;altitude;pressure_sealevel;temperature;humidity
60609;BME280;48221;53.528;9.884;2023-02-18T00:00:21;101549.06;;;5.88;100.00
60609;BME280;48221;53.528;9.884;2023-02-18T00:02:47;101562.25;;;5.91;100.00
60609;BME280;48221;53.528;9.884;2023-02-18T00:05:14;101562.47;;;5.96;100.00
60609;BME280;48221;53.528;9.884;2023-02-18T00:07:40;101560.78;;;5.96;100.00
60609;BME280;48221;53.528;9.884;2023-02-18T00:10:08;101571.16;;;5.96;100.00
60609;BME280;48221;53.528;9.884;2023-02-18T00:12:35;101571.22;;;5.98;100.00
60609;BME280;48221;53.528;9.884;2023-02-18T00:15:00;101565.16;;;5.97;100.00
60609;BME280;48221;53.528;9.884;2023-02-18T00:17:25;101551.06;;;5.92;100.00
60609;BME280;48221;53.528;9.884;2023-02-18T00:19:52;101556.34;;;5.94;100.00
60609;BME280;48221;53.528;9.884;2023-02-18T00:22:17;101560.69;;;5.95;100.00
60609;BME280;48221;53.528;9.884;2023-02-18T00:24:42;101567.50;;;5.93;100.00
60609;BME280;48221;53.528;9.884;2023-02-18T00:27:08;101561.19;;;5.89;100.00
60609;BME280;48221;53.528;9.884;2023-02-18T00:29:33;101571.56;;;5.89;100.00
60609;BME280;48221;53.528;9.884;2023-02-18T00:31:58;101565.31;;;5.85;100.00
60609;BME280;48221;53.528;9.884;2023-02-18T00:34:24;101569.69;;;5.86;100.00
60609;BME280;48221;53.528;9.884;2023-02-18T00:36:49;101569.63;;;5.85;100.00
60609;BME280;48221;53.528;9.884;2023-02-18T00:39:14;101573.00;;;5.84;100.00
60609;BME280;48221;53.528;9.884;2023-02-18T00:41:41;101579.81;;;5.82;100.00
60609;BME280;48221;53.528;9.884;2023-02-18T00:44:06;101586.59;;;5.80;100.00
60609;BME280;48221;53.528;9.884;2023-02-18T00:46:32;101577.75;;;5.76;100.00
60609;BME280;48221;53.528;9.884;2023-02-18T00:48:58;101572.47;;;5.75;100.00
60609;BME280;48221;53.528;9.884;2023-02-18T00:51:24;101584.47;;;5.73;100.00
60609;BME280;48221;53.528;9.884;2023-02-18T00:53:50;101584.28;;;5.70;100.00
60609;BME280;48221;53.528;9.884;2023-02-18T00:56:15;101594.66;;;5.70;100.00
60609;BME280;48221;53.528;9.884;2023-02-18T00:58:40;101597.25;;;5.70;100.00
60609;BME280;48221;53.528;9.884;2023-02-18T01:01:06;101587.69;;;5.69;100.00
60609;BME280;48221;53.528;9.884;2023-02-18T01:03:32;101590.06;;;5.66;100.00
60609;BME280;48221;53.528;9.884;2023-02-18T01:05:57;101603.91;;;5.66;100.00
60609;BME280;48221;53.528;9.884;2023-02-18T01:08:23;101597.84;;;5.66;100.00
60609;BME280;48221;53.528;9.884;2023-02-18T01:10:51;101596.06;;;5.65;100.00
60609;BME280;48221;53.528;9.884;2023-02-18T01:13:17;101584.56;;;5.60;100.00
60609;BME280;48221;53.528;9.884;2023-02-18T01:15:42;101583.75;;;5.61;100.00
60609;BME280;48221;53.528;9.884;2023-02-18T01:18:08;101581.16;;;5.61;100.00
60609;BME280;48221;53.528;9.884;2023-02-18T01:20:35;101581.00;;;5.57;100.00
60609;BME280;48221;53.528;9.884;2023-02-18T01:23:00;101591.16;;;5.54;100.00
60609;BME280;48221;53.528;9.884;2023-02-18T01:25:26;101587.59;;;5.52;100.00
60609;BME280;48221;53.528;9.884;2023-02-18T01:27:51;101584.03;;;5.50;100.00
60609;BME280;48221;53.528;9.884;2023-02-18T01:30:17;101577.69;;;5.45;100.00
60609;BME280;48221;53.528;9.884;2023-02-18T01:32:43;101586.16;;;5.43;100.00
60609;BME280;48221;53.528;9.884;2023-02-18T01:35:13;101588.66;;;5.41;100.00
60609;BME280;48221;53.528;9.884;2023-02-18T01:37:39;101586.94;;;5.42;100.00
60609;BME280;48221;53.528;9.884;2023-02-18T01:40:06;101586.78;;;5.39;100.00
60609;BME280;48221;53.528;9.884;2023-02-18T01:42:31;101590.09;;;5.36;100.00
60609;BME280;48221;53.528;9.884;2023-02-18T01:48:05;101579.38;;;5.30;100.00
60609;BME280;48221;53.528;9.884;2023-02-18T01:50:36;101586.94;;;5.27;100.00
60609;BME280;48221;53.528;9.884;2023-02-18T01:53:02;101581.59;;;5.24;100.00
60609;BME280;48221;53.528;9.884;2023-02-18T01:55:28;101577.25;;;5.23;100.00
60609;BME280;48221;53.528;9.884;2023-02-18T01:57:53;101578.03;;;5.22;100.00
60609;BME280;48221;53.528;9.884;2023-02-18T02:00:19;101572.88;;;5.22;100.00
60609;BME280;48221;53.528;9.884;2023-02-18T02:02:50;101573.66;;;5.21;100.00
60609;BME280;48221;53.528;9.884;2023-02-18T02:05:16;101571.84;;;5.20;100.00
60609;BME280;48221;53.528;9.884;2023-02-18T02:07:43;101573.66;;;5.21;100.00
60609;BME280;48221;53.528;9.884;2023-02-18T02:10:11;101571.84;;;5.20;100.00
60609;BME280;48221;53.528;9.884;2023-02-18T02:15:40;101573.56;;;5.19;100.00
60609;BME280;48221;53.528;9.884;2023-02-18T02:26:22;101574.34;;;5.18;100.00
60609;BME280;48221;53.528;9.884;2023-02-18T02:31:46;101567.56;;;5.20;100.00
60609;BME280;48221;53.528;9.884;2023-02-18T02:46:01;101540.13;;;5.22;100.00
60609;BME280;48221;53.528;9.884;2023-02-18T02:51:14;101543.78;;;5.26;100.00
60609;BME280;48221;53.528;9.884;2023-02-18T02:53:42;101542.16;;;5.28;100.00
60609;BME280;48221;53.528;9.884;2023-02-18T02:56:13;101543.13;;;5.30;100.00
60609;BME280;48221;53.528;9.884;2023-02-18T02:58:39;101546.69;;;5.32;100.00
60609;BME280;48221;53.528;9.884;2023-02-18T03:01:48;101548.59;;;5.35;100.00
60609;BME280;48221;53.528;9.884;2023-02-18T03:04:42;101530.56;;;5.36;100.00
60609;BME280;48221;53.528;9.884;2023-02-18T03:10:52;101541.09;;;5.39;100.00
60609;BME280;48221;53.528;9.884;2023-02-18T03:16:44;101540.44;;;5.43;100.00
60609;BME280;48221;53.528;9.884;2023-02-18T03:19:24;101530.22;;;5.45;100.00
60609;BME280;48221;53.528;9.884;2023-02-18T03:22:06;101534.66;;;5.47;100.00
60609;BME280;48221;53.528;9.884;2023-02-18T03:24:39;101527.06;;;5.50;100.00
60609;BME280;48221;53.528;9.884;2023-02-18T03:27:14;101521.09;;;5.51;100.00
60609;BME280;48221;53.528;9.884;2023-02-18T03:29:42;101528.03;;;5.52;100.00
60609;BME280;48221;53.528;9.884;2023-02-18T03:32:12;101530.03;;;5.56;100.00
60609;BME280;48221;53.528;9.884;2023-02-18T03:34:42;101527.44;;;5.56;100.00
60609;BME280;48221;53.528;9.884;2023-02-18T03:37:09;101534.47;;;5.59;100.00
60609;BME280;48221;53.528;9.884;2023-02-18T03:39:36;101539.66;;;5.59;100.00
60609;BME280;48221;53.528;9.884;2023-02-18T03:42:02;101531.97;;;5.61;100.00
60609;BME280;48221;53.528;9.884;2023-02-18T03:44:29;101533.75;;;5.62;100.00
60609;BME280;48221;53.528;9.884;2023-02-18T03:46:54;101534.56;;;5.61;100.00
60609;BME280;48221;53.528;9.884;2023-02-18T03:49:19;101535.69;;;5.66;100.00
60609;BME280;48221;53.528;9.884;2023-02-18T03:51:45;101535.69;;;5.66;100.00
60609;BME280;48221;53.528;9.884;2023-02-18T03:54:11;101536.50;;;5.65;100.00
60609;BME280;48221;53.528;9.884;2023-02-18T03:56:38;101533.75;;;5.62;100.00
60609;BME280;48221;53.528;9.884;2023-02-18T03:59:03;101538.19;;;5.64;100.00
60609;BME280;48221;53.528;9.884;2023-02-18T04:01:29;101535.53;;;5.63;100.00
60609;BME280;48221;53.528;9.884;2023-02-18T04:03:54;101533.03;;;5.64;100.00
60609;BME280;48221;53.528;9.884;2023-02-18T04:06:20;101535.53;;;5.63;100.00
60609;BME280;48221;53.528;9.884;2023-02-18T04:08:47;101528.56;;;5.62;100.00
60609;BME280;48221;53.528;9.884;2023-02-18T04:11:12;101525.97;;;5.62;100.00
60609;BME280;48221;53.528;9.884;2023-02-18T04:13:37;101513.75;;;5.59;100.00
60609;BME280;48221;53.528;9.884;2023-02-18T04:16:03;101514.66;;;5.60;100.00
60609;BME280;48221;53.528;9.884;2023-02-18T04:18:28;101512.78;;;5.57;100.00
60609;BME280;48221;53.528;9.884;2023-02-18T04:20:54;101504.13;;;5.56;100.00
60609;BME280;48221;53.528;9.884;2023-02-18T04:23:19;101504.81;;;5.54;100.00
60609;BME280;48221;53.528;9.884;2023-02-18T04:25:44;101496.97;;;5.52;100.00
60609;BME280;48221;53.528;9.884;2023-02-18T04:28:12;101492.69;;;5.53;100.00
60609;BME280;48221;53.528;9.884;2023-02-18T04:30:39;101484.03;;;5.52;100.00
60609;BME280;48221;53.528;9.884;2023-02-18T04:33:04;101478.59;;;5.48;100.00
60609;BME280;48221;53.528;9.884;2023-02-18T04:35:29;101482.09;;;5.48;100.00
60609;BME280;48221;53.528;9.884;2023-02-18T04:37:55;101486.28;;;5.46;100.00
60609;BME280;48221;53.528;9.884;2023-02-18T04:40:20;101470.75;;;5.46;100.00
60609;BME280;48221;53.528;9.884;2023-02-18T04:42:45;101470.75;;;5.46;100.00
60609;BME280;48221;53.528;9.884;2023-02-18T04:45:10;101468.97;;;5.45;100.00
60609;BME280;48221;53.528;9.884;2023-02-18T04:47:36;101463.59;;;5.42;100.00
60609;BME280;48221;53.528;9.884;2023-02-18T04:50:01;101466.28;;;5.44;100.00
60609;BME280;48221;53.528;9.884;2023-02-18T04:52:27;101474.16;;;5.45;100.00
60609;BME280;48221;53.528;9.884;2023-02-18T04:54:52;101463.81;;;5.45;100.00
60609;BME280;48221;53.528;9.884;2023-02-18T04:57:17;101464.69;;;5.46;100.00
60609;BME280;48221;53.528;9.884;2023-02-18T04:59:42;101475.06;;;5.46;100.00
60609;BME280;48221;53.528;9.884;2023-02-18T05:02:08;101474.16;;;5.45;100.00
60609;BME280;48221;53.528;9.884;2023-02-18T05:04:33;101468.19;;;5.46;100.00
60609;BME280;48221;53.528;9.884;2023-02-18T05:06:59;101463.81;;;5.45;100.00
60609;BME280;48221;53.528;9.884;2023-02-18T05:09:24;101470.84;;;5.48;100.00
60609;BME280;48221;53.528;9.884;2023-02-18T05:11:49;101470.75;;;5.46;100.00
60609;BME280;48221;53.528;9.884;2023-02-18T05:14:15;101464.78;;;5.47;100.00
60609;BME280;48221;53.528;9.884;2023-02-18T05:16:40;101458.78;;;5.48;100.00
60609;BME280;48221;53.528;9.884;2023-02-18T05:19:06;101457.09;;;5.49;100.00
60609;BME280;48221;53.528;9.884;2023-02-18T05:21:31;101462.19;;;5.47;100.00
60609;BME280;48221;53.528;9.884;2023-02-18T05:23:57;101457.97;;;5.49;100.00
60609;BME280;48221;53.528;9.884;2023-02-18T05:26:22;101448.44;;;5.48;100.00
60609;BME280;48221;53.528;9.884;2023-02-18T05:28:48;101450.22;;;5.49;100.00
60609;BME280;48221;53.528;9.884;2023-02-18T05:31:13;101442.38;;;5.48;100.00
60609;BME280;48221;53.528;9.884;2023-02-18T05:33:38;101434.53;;;5.46;100.00
60609;BME280;48221;53.528;9.884;2023-02-18T05:36:04;101444.88;;;5.46;100.00
60609;BME280;48221;53.528;9.884;2023-02-18T05:38:29;101434.53;;;5.46;100.00
60609;BME280;48221;53.528;9.884;2023-02-18T05:40:55;101437.13;;;5.46;100.00
60609;BME280;48221;53.528;9.884;2023-02-18T05:43:20;101431.75;;;5.43;100.00
60609;BME280;48221;53.528;9.884;2023-02-18T05:45:45;101421.38;;;5.43;100.00
60609;BME280;48221;53.528;9.884;2023-02-18T05:48:11;101425.44;;;5.38;100.00
60609;BME280;48221;53.528;9.884;2023-02-18T05:50:36;101413.31;;;5.37;100.00
60609;BME280;48221;53.528;9.884;2023-02-18T05:53:01;101422.84;;;5.38;100.00
60609;BME280;48221;53.528;9.884;2023-02-18T05:55:27;101422.03;;;5.39;100.00
60609;BME280;48221;53.528;9.884;2023-02-18T05:57:52;101422.03;;;5.39;100.00
60609;BME280;48221;53.528;9.884;2023-02-18T06:00:17;101425.44;;;5.38;100.00
60609;BME280;48221;53.528;9.884;2023-02-18T06:02:43;101410.72;;;5.37;100.00
60609;BME280;48221;53.528;9.884;2023-02-18T06:05:09;101403.69;;;5.35;100.00
60609;BME280;48221;53.528;9.884;2023-02-18T06:07:34;101407.06;;;5.34;100.00
60609;BME280;48221;53.528;9.884;2023-02-18T06:10:00;101415.81;;;5.36;100.00
60609;BME280;48221;53.528;9.884;2023-02-18T06:12:25;101410.63;;;5.36;100.00
60609;BME280;48221;53.528;9.884;2023-02-18T06:14:50;101402.78;;;5.34;100.00
60609;BME280;48221;53.528;9.884;2023-02-18T06:17:16;101391.63;;;5.35;100.00
60609;BME280;48221;53.528;9.884;2023-02-18T06:19:43;101385.38;;;5.32;100.00
60609;BME280;48221;53.528;9.884;2023-02-18T06:22:08;101374.94;;;5.30;100.00
60609;BME280;48221;53.528;9.884;2023-02-18T06:24:33;101363.78;;;5.31;100.00
60609;BME280;48221;53.528;9.884;2023-02-18T06:26:58;101368.06;;;5.31;100.00
60609;BME280;48221;53.528;9.884;2023-02-18T06:29:24;101359.31;;;5.28;100.00
60609;BME280;48221;53.528;9.884;2023-02-18T06:31:49;101354.06;;;5.27;100.00
60609;BME280;48221;53.528;9.884;2023-02-18T06:34:15;101359.25;;;5.27;100.00
60609;BME280;48221;53.528;9.884;2023-02-18T06:36:41;101354.97;;;5.27;100.00
60609;BME280;48221;53.528;9.884;2023-02-18T06:39:06;101351.25;;;5.22;100.00
60609;BME280;48221;53.528;9.884;2023-02-18T06:41:32;101333.22;;;5.24;100.00
60609;BME280;48221;53.528;9.884;2023-02-18T06:43:57;101329.72;;;5.23;100.00
60609;BME280;48221;53.528;9.884;2023-02-18T06:46:22;101325.44;;;5.24;100.00
60609;BME280;48221;53.528;9.884;2023-02-18T06:48:48;101311.69;;;5.25;100.00
60609;BME280;48221;53.528;9.884;2023-02-18T06:51:13;101316.97;;;5.26;100.00
60609;BME280;48221;53.528;9.884;2023-02-18T06:53:40;101308.47;;;5.29;100.00
60609;BME280;48221;53.528;9.884;2023-02-18T06:56:06;101310.25;;;5.30;100.00
60609;BME280;48221;53.528;9.884;2023-02-18T06:58:31;101303.38;;;5.31;100.00
60609;BME280;48221;53.528;9.884;2023-02-18T07:00:56;101280.16;;;5.32;100.00
60609;BME280;48221;53.528;9.884;2023-02-18T07:03:22;101281.16;;;5.34;100.00
60609;BME280;48221;53.528;9.884;2023-02-18T07:05:47;101276.06;;;5.36;100.00
60609;BME280;48221;53.528;9.884;2023-02-18T07:08:13;101266.59;;;5.36;100.00
60609;BME280;48221;53.528;9.884;2023-02-18T07:10:38;101272.75;;;5.38;100.00
60609;BME280;48221;53.528;9.884;2023-02-18T07:13:04;101271.94;;;5.39;100.00
60609;BME280;48221;53.528;9.884;2023-02-18T07:15:29;101275.41;;;5.40;100.00
60609;BME280;48221;53.528;9.884;2023-02-18T07:17:55;101274.59;;;5.41;100.00
60609;BME280;48221;53.528;9.884;2023-02-18T07:20:20;101262.63;;;5.43;100.00
60609;BME280;48221;53.528;9.884;2023-02-18T07:22:46;101261.72;;;5.42;100.00
60609;BME280;48221;53.528;9.884;2023-02-18T07:25:12;101254.03;;;5.44;100.00
60609;BME280;48221;53.528;9.884;2023-02-18T07:27:37;101248.16;;;5.46;100.00
60609;BME280;48221;53.528;9.884;2023-02-18T07:30:03;101216.28;;;5.47;100.00
60609;BME280;48221;53.528;9.884;2023-02-18T07:32:29;101208.69;;;5.50;100.00
60609;BME280;48221;53.528;9.884;2023-02-18T07:34:54;101200.91;;;5.50;100.00
60609;BME280;48221;53.528;9.884;2023-02-18T07:37:20;101201.88;;;5.52;100.00
60609;BME280;48221;53.528;9.884;2023-02-18T07:39:45;101206.44;;;5.56;100.00
60609;BME280;48221;53.528;9.884;2023-02-18T07:42:11;101205.63;;;5.57;100.00
60609;BME280;48221;53.528;9.884;2023-02-18T07:44:37;101192.75;;;5.59;100.00
60609;BME280;48221;53.528;9.884;2023-02-18T07:47:04;101185.94;;;5.61;100.00
60609;BME280;48221;53.528;9.884;2023-02-18T07:49:30;101190.47;;;5.65;100.00
60609;BME280;48221;53.528;9.884;2023-02-18T07:51:55;101169.13;;;5.69;100.00
60609;BME280;48221;53.528;9.884;2023-02-18T07:54:20;101156.31;;;5.72;100.00
60609;BME280;48221;53.528;9.884;2023-02-18T07:56:46;101147.81;;;5.75;100.00
60609;BME280;48221;53.528;9.884;2023-02-18T07:59:11;101141.06;;;5.78;100.00
60609;BME280;48221;53.528;9.884;2023-02-18T08:01:37;101138.59;;;5.80;100.00
60609;BME280;48221;53.528;9.884;2023-02-18T08:04:03;101138.59;;;5.80;100.00
60609;BME280;48221;53.528;9.884;2023-02-18T08:06:40;101131.84;;;5.83;100.00
60609;BME280;48221;53.528;9.884;2023-02-18T08:09:06;101129.41;;;5.86;100.00
60609;BME280;48221;53.528;9.884;2023-02-18T08:11:32;101129.47;;;5.88;100.00
60609;BME280;48221;53.528;9.884;2023-02-18T08:13:58;101130.56;;;5.92;100.00
60609;BME280;48221;53.528;9.884;2023-02-18T08:16:23;101128.03;;;5.93;100.00
60609;BME280;48221;53.528;9.884;2023-02-18T08:18:50;101122.94;;;5.95;100.00
60609;BME280;48221;53.528;9.884;2023-02-18T08:21:17;101125.66;;;5.98;100.00
60609;BME280;48221;53.528;9.884;2023-02-18T08:23:43;101114.56;;;6.00;100.00
60609;BME280;48221;53.528;9.884;2023-02-18T08:26:09;101111.31;;;6.04;100.00
60609;BME280;48221;53.528;9.884;2023-02-18T08:28:35;101104.50;;;6.06;100.00
60609;BME280;48221;53.528;9.884;2023-02-18T08:31:00;101102.88;;;6.08;100.00
60609;BME280;48221;53.528;9.884;2023-02-18T08:33:26;101105.59;;;6.11;100.00
60609;BME280;48221;53.528;9.884;2023-02-18T08:35:53;101104.78;;;6.12;100.00
60609;BME280;48221;53.528;9.884;2023-02-18T08:38:19;101114.25;;;6.12;100.00
60609;BME280;48221;53.528;9.884;2023-02-18T08:40:45;101097.84;;;6.11;100.00
60609;BME280;48221;53.528;9.884;2023-02-18T08:43:11;101086.59;;;6.11;100.00
60609;BME280;48221;53.528;9.884;2023-02-18T08:45:37;101081.47;;;6.12;100.00
60609;BME280;48221;53.528;9.884;2023-02-18T08:48:05;101081.56;;;6.14;100.00
60609;BME280;48221;53.528;9.884;2023-02-18T08:50:30;101068.69;;;6.16;100.00
60609;BME280;48221;53.528;9.884;2023-02-18T08:52:56;101056.69;;;6.18;100.00
60609;BME280;48221;53.528;9.884;2023-02-18T08:55:24;101061.13;;;6.20;100.00
60609;BME280;48221;53.528;9.884;2023-02-18T08:57:51;101045.63;;;6.22;100.00
60609;BME280;48221;53.528;9.884;2023-02-18T09:00:16;101037.13;;;6.24;100.00
60609;BME280;48221;53.528;9.884;2023-02-18T09:02:42;101035.50;;;6.26;100.00
60609;BME280;48221;53.528;9.884;2023-02-18T09:05:08;101026.03;;;6.27;100.00
60609;BME280;48221;53.528;9.884;2023-02-18T09:07:35;101024.38;;;6.29;100.00
60609;BME280;48221;53.528;9.884;2023-02-18T09:10:00;101013.13;;;6.28;100.00
60609;BME280;48221;53.528;9.884;2023-02-18T09:12:25;100996.84;;;6.31;100.00
60609;BME280;48221;53.528;9.884;2023-02-18T09:14:51;100983.06;;;6.32;100.00
60609;BME280;48221;53.528;9.884;2023-02-18T09:17:16;100977.06;;;6.33;100.00
60609;BME280;48221;53.528;9.884;2023-02-18T09:19:41;100966.81;;;6.36;100.00
60609;BME280;48221;53.528;9.884;2023-02-18T09:22:07;100966.03;;;6.37;100.00
60609;BME280;48221;53.528;9.884;2023-02-18T09:24:36;100970.44;;;6.39;100.00
60609;BME280;48221;53.528;9.884;2023-02-18T09:27:02;100966.22;;;6.41;100.00
60609;BME280;48221;53.528;9.884;2023-02-18T09:29:27;100965.41;;;6.42;100.00
60609;BME280;48221;53.528;9.884;2023-02-18T09:31:53;100964.63;;;6.45;100.00
60609;BME280;48221;53.528;9.884;2023-02-18T09:34:18;100951.75;;;6.47;100.00
60609;BME280;48221;53.528;9.884;2023-02-18T09:36:43;100951.03;;;6.49;100.00
60609;BME280;48221;53.528;9.884;2023-02-18T09:39:09;100946.78;;;6.51;100.00
60609;BME280;48221;53.528;9.884;2023-02-18T09:41:47;100928.75;;;6.54;100.00
60609;BME280;48221;53.528;9.884;2023-02-18T09:44:31;100934.88;;;6.56;100.00
60609;BME280;48221;53.528;9.884;2023-02-18T09:47:04;100934.06;;;6.57;100.00
60609;BME280;48221;53.528;9.884;2023-02-18T09:49:34;100932.53;;;6.61;100.00
60609;BME280;48221;53.528;9.884;2023-02-18T09:52:17;100916.13;;;6.62;100.00
60609;BME280;48221;53.528;9.884;2023-02-18T09:54:44;100911.06;;;6.65;100.00
60609;BME280;48221;53.528;9.884;2023-02-18T10:00:09;100886.97;;;6.67;100.00
60609;BME280;48221;53.528;9.884;2023-02-18T10:02:38;100881.13;;;6.71;100.00
60609;BME280;48221;53.528;9.884;2023-02-18T10:05:04;100879.31;;;6.70;100.00
60609;BME280;48221;53.528;9.884;2023-02-18T10:07:32;100874.41;;;6.77;100.00
60609;BME280;48221;53.528;9.884;2023-02-18T10:10:04;100871.81;;;6.77;100.00
60609;BME280;48221;53.528;9.884;2023-02-18T10:12:35;100883.94;;;6.78;100.00
60609;BME280;48221;53.528;9.884;2023-02-18T10:15:02;100884.91;;;6.80;100.00
60609;BME280;48221;53.528;9.884;2023-02-18T10:17:29;100877.19;;;6.81;100.00
60609;BME280;48221;53.528;9.884;2023-02-18T10:19:57;100873.84;;;6.84;100.00
60609;BME280;48221;53.528;9.884;2023-02-18T10:22:25;100867.97;;;6.88;100.00
60609;BME280;48221;53.528;9.884;2023-02-18T10:24:53;100865.47;;;6.91;100.00
60609;BME280;48221;53.528;9.884;2023-02-18T10:27:28;100856.19;;;6.96;100.00
60609;BME280;48221;53.528;9.884;2023-02-18T10:30:17;100849.34;;;6.98;100.00
60609;BME280;48221;53.528;9.884;2023-02-18T10:32:45;100853.00;;;7.03;100.00
60609;BME280;48221;53.528;9.884;2023-02-18T10:35:23;100849.72;;;7.07;100.00
60609;BME280;48221;53.528;9.884;2023-02-18T10:50:48;100811.88;;;7.35;100.00
60609;BME280;48221;53.528;9.884;2023-02-18T10:53:39;100813.81;;;7.40;100.00
60609;BME280;48221;53.528;9.884;2023-02-18T10:56:07;100794.06;;;7.44;100.00
60609;BME280;48221;53.528;9.884;2023-02-18T11:01:00;100790.16;;;7.55;100.00
60609;BME280;48221;53.528;9.884;2023-02-18T11:03:45;100780.81;;;7.60;100.00
60609;BME280;48221;53.528;9.884;2023-02-18T11:06:30;100777.63;;;7.67;100.00
60609;BME280;48221;53.528;9.884;2023-02-18T11:08:57;100774.50;;;7.76;100.00
60609;BME280;48221;53.528;9.884;2023-02-18T11:11:28;100770.63;;;7.88;100.00
60609;BME280;48221;53.528;9.884;2023-02-18T11:13:57;100767.63;;;8.02;100.00
60609;BME280;48221;53.528;9.884;2023-02-18T11:16:24;100762.16;;;8.19;100.00
60609;BME280;48221;53.528;9.884;2023-02-18T11:19:00;100755.75;;;8.34;100.00
60609;BME280;48221;53.528;9.884;2023-02-18T11:21:33;100751.97;;;8.50;100.00
60609;BME280;48221;53.528;9.884;2023-02-18T11:24:07;100747.94;;;8.59;100.00
60609;BME280;48221;53.528;9.884;2023-02-18T11:26:34;100743.09;;;8.70;100.00
60609;BME280;48221;53.528;9.884;2023-02-18T11:29:03;100736.41;;;8.78;100.00
60609;BME280;48221;53.528;9.884;2023-02-18T11:31:45;100734.94;;;8.86;100.00
60609;BME280;48221;53.528;9.884;2023-02-18T11:34:32;100735.13;;;8.92;100.00
60609;BME280;48221;53.528;9.884;2023-02-18T11:37:12;100731.94;;;9.02;100.00
60609;BME280;48221;53.528;9.884;2023-02-18T11:39:43;100722.56;;;9.07;100.00
60609;BME280;48221;53.528;9.884;2023-02-18T11:42:13;100722.69;;;9.12;100.00
60609;BME280;48221;53.528;9.884;2023-02-18T11:44:52;100722.91;;;9.18;100.00
60609;BME280;48221;53.528;9.884;2023-02-18T11:47:21;100726.50;;;9.23;100.00
60609;BME280;48221;53.528;9.884;2023-02-18T11:50:22;100730.03;;;9.25;100.00
60609;BME280;48221;53.528;9.884;2023-02-18T11:52:49;100743.13;;;9.27;100.00
60609;BME280;48221;53.528;9.884;2023-02-18T11:55:24;100744.94;;;9.29;100.00
60609;BME280;48221;53.528;9.884;2023-02-18T12:00:24;100743.00;;;9.24;100.00
60609;BME280;48221;53.528;9.884;2023-02-18T12:02:58;100750.78;;;9.22;100.00
60609;BME280;48221;53.528;9.884;2023-02-18T12:05:27;100754.34;;;9.26;100.00
60609;BME280;48221;53.528;9.884;2023-02-18T12:08:13;100765.81;;;9.31;100.00
60609;BME280;48221;53.528;9.884;2023-02-18T12:10:50;100775.34;;;9.30;100.00
60609;BME280;48221;53.528;9.884;2023-02-18T12:13:24;100768.44;;;9.32;100.00
60609;BME280;48221;53.528;9.884;2023-02-18T12:16:18;100771.91;;;9.31;100.00
60609;BME280;48221;53.528;9.884;2023-02-18T12:18:57;100782.31;;;9.31;100.00
60609;BME280;48221;53.528;9.884;2023-02-18T12:27:43;100793.41;;;9.26;100.00
60609;BME280;48221;53.528;9.884;2023-02-18T12:33:10;100806.25;;;9.20;100.00
60609;BME280;48221;53.528;9.884;2023-02-18T12:35:48;100798.94;;;9.08;100.00
60609;BME280;48221;53.528;9.884;2023-02-18T12:38:32;100805.88;;;9.07;100.00
60609;BME280;48221;53.528;9.884;2023-02-18T12:46:44;100823.88;;;9.01;100.00
60609;BME280;48221;53.528;9.884;2023-02-18T12:50:22;100824.63;;;8.97;100.00
60609;BME280;48221;53.528;9.884;2023-02-18T12:52:56;100808.09;;;8.95;100.00
60609;BME280;48221;53.528;9.884;2023-02-18T12:58:27;100828.81;;;8.92;100.00
60609;BME280;48221;53.528;9.884;2023-02-18T13:09:35;100832.69;;;8.80;100.00
60609;BME280;48221;53.528;9.884;2023-02-18T13:15:24;100826.63;;;8.79;100.00
60609;BME280;48221;53.528;9.884;2023-02-18T13:17:56;100851.84;;;8.80;100.00
60609;BME280;48221;53.528;9.884;2023-02-18T13:20:36;100839.56;;;8.77;100.00
60609;BME280;48221;53.528;9.884;2023-02-18T13:23:03;100851.69;;;8.77;100.00
60609;BME280;48221;53.528;9.884;2023-02-18T13:25:34;100862.94;;;8.76;100.00
60609;BME280;48221;53.528;9.884;2023-02-18T13:39:17;100890.22;;;8.62;100.00
60609;BME280;48221;53.528;9.884;2023-02-18T13:41:48;100906.66;;;8.61;100.00
60609;BME280;48221;53.528;9.884;2023-02-18T13:46:50;100895.31;;;8.59;100.00
60609;BME280;48221;53.528;9.884;2023-02-18T13:49:21;100902.28;;;8.60;100.00
60609;BME280;48221;53.528;9.884;2023-02-18T13:51:50;100902.94;;;8.54;100.00
60609;BME280;48221;53.528;9.884;2023-02-18T13:54:43;100899.25;;;8.47;100.00
60609;BME280;48221;53.528;9.884;2023-02-18T13:57:15;100897.25;;;8.40;100.00
60609;BME280;48221;53.528;9.884;2023-02-18T13:59:42;100914.63;;;8.41;100.00
60609;BME280;48221;53.528;9.884;2023-02-18T14:02:30;100909.28;;;8.37;100.00
60609;BME280;48221;53.528;9.884;2023-02-18T14:05:42;100910.16;;;8.37;100.00
60609;BME280;48221;53.528;9.884;2023-02-18T14:08:32;100923.66;;;8.29;100.00
60609;BME280;48221;53.528;9.884;2023-02-18T14:10:38;100925.38;;;8.28;100.00
60609;BME280;48221;53.528;9.884;2023-02-18T14:16:08;100931.31;;;8.24;100.00
60609;BME280;48221;53.528;9.884;2023-02-18T14:33:40;100984.81;;;7.97;100.00
60609;BME280;48221;53.528;9.884;2023-02-18T14:36:23;100997.41;;;7.86;100.00
60609;BME280;48221;53.528;9.884;2023-02-18T14:38:59;101004.19;;;7.82;100.00
60609;BME280;48221;53.528;9.884;2023-02-18T14:44:22;101011.88;;;7.79;100.00
60609;BME280;48221;53.528;9.884;2023-02-18T14:49:45;101032.38;;;7.73;100.00
60609;BME280;48221;53.528;9.884;2023-02-18T14:55:04;101030.13;;;7.60;100.00
60609;BME280;48221;53.528;9.884;2023-02-18T14:57:49;101026.13;;;7.47;100.00
60609;BME280;48221;53.528;9.884;2023-02-18T15:00:22;101033.47;;;7.37;100.00
60609;BME280;48221;53.528;9.884;2023-02-18T15:02:53;101040.03;;;7.28;100.00
60609;BME280;48221;53.528;9.884;2023-02-18T15:05:24;101043.41;;;7.26;100.00
60609;BME280;48221;53.528;9.884;2023-02-18T15:08:05;101046.69;;;7.22;100.00